sensor_id;sensor_type;location;lat;lon;timestamp;P1;durP1;ratioP1;P2;durP2;ratioP2
9072;SDS011;4572;41.642;25.370;2023-07-29T00:00:46;4.20;;;3.80;;
9072;SDS011;4572;41.642;25.370;2023-07-29T00:03:12;4.22;;;3.80;;
9072;SDS011;4572;41.642;25.370;2023-07-29T00:05:37;4.35;;;4.00;;
9072;SDS011;4572;41.642;25.370;2023-07-29T00:08:03;4.05;;;3.65;;
9072;SDS011;4572;41.642;25.370;2023-07-29T00:10:30;4.00;;;3.63;;
9072;SDS011;4572;41.642;25.370;2023-07-29T00:12:56;4.45;;;3.75;;
9072;SDS011;4572;41.642;25.370;2023-07-29T00:15:22;5.43;;;3.80;;
9072;SDS011;4572;41.642;25.370;2023-07-29T00:17:47;3.90;;;3.60;;
9072;SDS011;4572;41.642;25.370;2023-07-29T00:20:13;4.20;;;3.83;;
9072;SDS011;4572;41.642;25.370;2023-07-29T00:22:38;4.28;;;3.88;;
9072;SDS011;4572;41.642;25.370;2023-07-29T00:25:04;4.40;;;4.00;;
9072;SDS011;4572;41.642;25.370;2023-07-29T00:27:29;3.97;;;3.67;;
9072;SDS011;4572;41.642;25.370;2023-07-29T00:29:55;4.53;;;4.13;;
9072;SDS011;4572;41.642;25.370;2023-07-29T00:32:20;4.82;;;4.43;;
9072;SDS011;4572;41.642;25.370;2023-07-29T00:34:46;4.22;;;3.92;;
9072;SDS011;4572;41.642;25.370;2023-07-29T00:37:11;4.72;;;4.32;;
9072;SDS011;4572;41.642;25.370;2023-07-29T00:39:37;4.20;;;3.80;;
9072;SDS011;4572;41.642;25.370;2023-07-29T00:42:03;4.20;;;3.85;;
9072;SDS011;4572;41.642;25.370;2023-07-29T00:44:29;4.78;;;4.38;;
9072;SDS011;4572;41.642;25.370;2023-07-29T00:46:56;5.63;;;4.53;;
9072;SDS011;4572;41.642;25.370;2023-07-29T00:49:22;5.00;;;4.28;;
9072;SDS011;4572;41.642;25.370;2023-07-29T00:51:48;4.30;;;3.90;;
9072;SDS011;4572;41.642;25.370;2023-07-29T00:54:13;5.05;;;4.07;;
9072;SDS011;4572;41.642;25.370;2023-07-29T00:56:39;4.10;;;3.80;;
9072;SDS011;4572;41.642;25.370;2023-07-29T00:59:05;4.63;;;4.22;;
9072;SDS011;4572;41.642;25.370;2023-07-29T01:01:31;4.40;;;4.00;;
9072;SDS011;4572;41.642;25.370;2023-07-29T01:03:57;4.32;;;3.92;;
9072;SDS011;4572;41.642;25.370;2023-07-29T01:09:09;4.63;;;4.22;;
9072;SDS011;4572;41.642;25.370;2023-07-29T01:14:26;4.88;;;4.43;;
9072;SDS011;4572;41.642;25.370;2023-07-29T01:16:58;4.00;;;3.70;;
9072;SDS011;4572;41.642;25.370;2023-07-29T01:19:51;4.65;;;4.20;;
9072;SDS011;4572;41.642;25.370;2023-07-29T01:22:34;5.80;;;4.53;;
9072;SDS011;4572;41.642;25.370;2023-07-29T01:25:00;5.95;;;4.50;;
9072;SDS011;4572;41.642;25.370;2023-07-29T01:27:26;4.60;;;4.20;;
9072;SDS011;4572;41.642;25.370;2023-07-29T01:29:52;4.65;;;4.25;;
9072;SDS011;4572;41.642;25.370;2023-07-29T01:32:21;4.43;;;4.03;;
9072;SDS011;4572;41.642;25.370;2023-07-29T01:34:56;5.80;;;4.47;;
9072;SDS011;4572;41.642;25.370;2023-07-29T01:37:39;6.65;;;4.15;;
9072;SDS011;4572;41.642;25.370;2023-07-29T01:40:06;4.25;;;3.85;;
9072;SDS011;4572;41.642;25.370;2023-07-29T01:42:33;4.63;;;4.20;;
9072;SDS011;4572;41.642;25.370;2023-07-29T01:44:59;4.05;;;3.75;;
9072;SDS011;4572;41.642;25.370;2023-07-29T01:47:24;5.47;;;4.32;;
9072;SDS011;4572;41.642;25.370;2023-07-29T01:49:50;4.70;;;4.30;;
9072;SDS011;4572;41.642;25.370;2023-07-29T01:52:16;5.10;;;4.30;;
9072;SDS011;4572;41.642;25.370;2023-07-29T01:54:41;4.93;;;4.50;;
9072;SDS011;4572;41.642;25.370;2023-07-29T01:57:07;4.82;;;4.40;;
9072;SDS011;4572;41.642;25.370;2023-07-29T01:59:32;4.57;;;4.18;;
9072;SDS011;4572;41.642;25.370;2023-07-29T02:01:58;5.03;;;4.53;;
9072;SDS011;4572;41.642;25.370;2023-07-29T02:04:23;4.78;;;4.25;;
9072;SDS011;4572;41.642;25.370;2023-07-29T02:06:49;4.82;;;4.35;;
9072;SDS011;4572;41.642;25.370;2023-07-29T02:09:14;5.03;;;4.60;;
9072;SDS011;4572;41.642;25.370;2023-07-29T02:11:40;4.85;;;4.28;;
9072;SDS011;4572;41.642;25.370;2023-07-29T02:14:05;4.60;;;4.20;;
9072;SDS011;4572;41.642;25.370;2023-07-29T02:16:31;4.47;;;4.05;;
9072;SDS011;4572;41.642;25.370;2023-07-29T02:18:58;5.03;;;4.53;;
9072;SDS011;4572;41.642;25.370;2023-07-29T02:21:23;4.82;;;4.43;;
9072;SDS011;4572;41.642;25.370;2023-07-29T02:23:49;6.22;;;4.80;;
9072;SDS011;4572;41.642;25.370;2023-07-29T02:26:14;6.20;;;5.28;;
9072;SDS011;4572;41.642;25.370;2023-07-29T02:28:39;7.47;;;4.38;;
9072;SDS011;4572;41.642;25.370;2023-07-29T02:31:09;4.88;;;4.43;;
9072;SDS011;4572;41.642;25.370;2023-07-29T02:33:39;4.75;;;4.28;;
9072;SDS011;4572;41.642;25.370;2023-07-29T02:36:04;4.40;;;4.00;;
9072;SDS011;4572;41.642;25.370;2023-07-29T02:38:30;4.93;;;4.47;;
9072;SDS011;4572;41.642;25.370;2023-07-29T02:40:55;4.35;;;3.95;;
9072;SDS011;4572;41.642;25.370;2023-07-29T02:43:21;5.40;;;4.60;;
9072;SDS011;4572;41.642;25.370;2023-07-29T02:45:46;6.45;;;4.45;;
9072;SDS011;4572;41.642;25.370;2023-07-29T02:48:12;5.78;;;4.47;;
9072;SDS011;4572;41.642;25.370;2023-07-29T02:50:37;4.45;;;3.92;;
9072;SDS011;4572;41.642;25.370;2023-07-29T02:53:02;4.88;;;4.45;;
9072;SDS011;4572;41.642;25.370;2023-07-29T02:55:28;5.53;;;3.95;;
9072;SDS011;4572;41.642;25.370;2023-07-29T02:57:53;5.53;;;4.43;;
9072;SDS011;4572;41.642;25.370;2023-07-29T03:00:19;5.28;;;4.80;;
9072;SDS011;4572;41.642;25.370;2023-07-29T03:02:44;4.97;;;4.57;;
9072;SDS011;4572;41.642;25.370;2023-07-29T03:05:10;5.07;;;4.57;;
9072;SDS011;4572;41.642;25.370;2023-07-29T03:07:35;5.70;;;4.05;;
9072;SDS011;4572;41.642;25.370;2023-07-29T03:10:01;5.22;;;4.72;;
9072;SDS011;4572;41.642;25.370;2023-07-29T03:12:26;4.95;;;4.38;;
9072;SDS011;4572;41.642;25.370;2023-07-29T03:14:52;5.15;;;4.65;;
9072;SDS011;4572;41.642;25.370;2023-07-29T03:17:17;6.82;;;4.10;;
9072;SDS011;4572;41.642;25.370;2023-07-29T03:19:43;4.97;;;4.28;;
9072;SDS011;4572;41.642;25.370;2023-07-29T03:22:08;5.03;;;4.47;;
9072;SDS011;4572;41.642;25.370;2023-07-29T03:24:33;5.97;;;4.53;;
9072;SDS011;4572;41.642;25.370;2023-07-29T03:26:59;4.95;;;4.38;;
9072;SDS011;4572;41.642;25.370;2023-07-29T03:29:24;4.38;;;3.97;;
9072;SDS011;4572;41.642;25.370;2023-07-29T03:31:50;5.07;;;4.55;;
9072;SDS011;4572;41.642;25.370;2023-07-29T03:34:15;6.07;;;4.60;;
9072;SDS011;4572;41.642;25.370;2023-07-29T03:36:41;4.75;;;4.35;;
9072;SDS011;4572;41.642;25.370;2023-07-29T03:39:06;6.53;;;4.65;;
9072;SDS011;4572;41.642;25.370;2023-07-29T03:41:32;5.32;;;4.82;;
9072;SDS011;4572;41.642;25.370;2023-07-29T03:43:58;4.97;;;4.47;;
9072;SDS011;4572;41.642;25.370;2023-07-29T03:46:24;4.63;;;4.22;;
9072;SDS011;4572;41.642;25.370;2023-07-29T03:48:50;5.32;;;4.82;;
9072;SDS011;4572;41.642;25.370;2023-07-29T03:51:16;5.20;;;4.70;;
9072;SDS011;4572;41.642;25.370;2023-07-29T03:53:41;6.22;;;5.03;;
9072;SDS011;4572;41.642;25.370;2023-07-29T03:56:07;5.53;;;5.03;;
9072;SDS011;4572;41.642;25.370;2023-07-29T03:58:32;5.72;;;5.00;;
9072;SDS011;4572;41.642;25.370;2023-07-29T04:00:58;7.00;;;5.43;;
9072;SDS011;4572;41.642;25.370;2023-07-29T04:03:24;6.95;;;5.15;;
9072;SDS011;4572;41.642;25.370;2023-07-29T04:05:49;5.60;;;5.10;;
9072;SDS011;4572;41.642;25.370;2023-07-29T04:08:15;5.03;;;4.53;;
9072;SDS011;4572;41.642;25.370;2023-07-29T04:10:40;6.00;;;5.00;;
9072;SDS011;4572;41.642;25.370;2023-07-29T04:13:06;5.55;;;5.05;;
9072;SDS011;4572;41.642;25.370;2023-07-29T04:15:31;4.72;;;4.32;;
9072;SDS011;4572;41.642;25.370;2023-07-29T04:17:57;5.53;;;5.03;;
9072;SDS011;4572;41.642;25.370;2023-07-29T04:20:22;5.07;;;4.57;;
9072;SDS011;4572;41.642;25.370;2023-07-29T04:22:48;5.72;;;5.18;;
9072;SDS011;4572;41.642;25.370;2023-07-29T04:25:13;6.47;;;5.15;;
9072;SDS011;4572;41.642;25.370;2023-07-29T04:27:39;5.72;;;4.78;;
9072;SDS011;4572;41.642;25.370;2023-07-29T04:30:05;5.53;;;5.00;;
9072;SDS011;4572;41.642;25.370;2023-07-29T04:32:31;7.90;;;4.80;;
9072;SDS011;4572;41.642;25.370;2023-07-29T04:34:56;5.63;;;5.03;;
9072;SDS011;4572;41.642;25.370;2023-07-29T04:37:22;5.47;;;4.97;;
9072;SDS011;4572;41.642;25.370;2023-07-29T04:39:47;6.20;;;5.57;;
9072;SDS011;4572;41.642;25.370;2023-07-29T04:42:13;6.75;;;5.57;;
9072;SDS011;4572;41.642;25.370;2023-07-29T04:44:38;5.93;;;5.28;;
9072;SDS011;4572;41.642;25.370;2023-07-29T04:47:04;6.18;;;5.57;;
9072;SDS011;4572;41.642;25.370;2023-07-29T04:49:29;6.32;;;5.30;;
9072;SDS011;4572;41.642;25.370;2023-07-29T04:51:55;6.05;;;5.35;;
9072;SDS011;4572;41.642;25.370;2023-07-29T04:54:20;6.03;;;4.97;;
9072;SDS011;4572;41.642;25.370;2023-07-29T04:56:46;8.48;;;5.50;;
9072;SDS011;4572;41.642;25.370;2023-07-29T04:59:12;7.25;;;6.25;;
9072;SDS011;4572;41.642;25.370;2023-07-29T05:01:38;8.10;;;5.70;;
9072;SDS011;4572;41.642;25.370;2023-07-29T05:04:04;6.00;;;5.40;;
9072;SDS011;4572;41.642;25.370;2023-07-29T05:06:29;6.93;;;5.78;;
9072;SDS011;4572;41.642;25.370;2023-07-29T05:08:56;7.85;;;5.75;;
9072;SDS011;4572;41.642;25.370;2023-07-29T05:11:22;5.88;;;5.25;;
9072;SDS011;4572;41.642;25.370;2023-07-29T05:13:50;6.32;;;5.72;;
9072;SDS011;4572;41.642;25.370;2023-07-29T05:16:16;8.73;;;6.50;;
9072;SDS011;4572;41.642;25.370;2023-07-29T05:18:41;7.25;;;6.55;;
9072;SDS011;4572;41.642;25.370;2023-07-29T05:21:07;7.13;;;6.32;;
9072;SDS011;4572;41.642;25.370;2023-07-29T05:23:33;7.90;;;6.57;;
9072;SDS011;4572;41.642;25.370;2023-07-29T05:25:59;8.00;;;5.93;;
9072;SDS011;4572;41.642;25.370;2023-07-29T05:28:24;6.65;;;5.70;;
9072;SDS011;4572;41.642;25.370;2023-07-29T05:30:50;6.65;;;5.82;;
9072;SDS011;4572;41.642;25.370;2023-07-29T05:33:15;6.93;;;6.15;;
9072;SDS011;4572;41.642;25.370;2023-07-29T05:35:41;6.57;;;5.88;;
9072;SDS011;4572;41.642;25.370;2023-07-29T05:38:06;8.32;;;6.80;;
9072;SDS011;4572;41.642;25.370;2023-07-29T05:40:33;7.85;;;6.18;;
9072;SDS011;4572;41.642;25.370;2023-07-29T05:42:59;10.48;;;5.90;;
9072;SDS011;4572;41.642;25.370;2023-07-29T05:45:24;7.13;;;5.95;;
9072;SDS011;4572;41.642;25.370;2023-07-29T05:47:50;6.53;;;5.03;;
9072;SDS011;4572;41.642;25.370;2023-07-29T05:50:15;6.72;;;5.22;;
9072;SDS011;4572;41.642;25.370;2023-07-29T05:52:41;5.93;;;5.35;;
9072;SDS011;4572;41.642;25.370;2023-07-29T05:55:06;5.93;;;5.32;;
9072;SDS011;4572;41.642;25.370;2023-07-29T05:57:32;6.70;;;5.68;;
9072;SDS011;4572;41.642;25.370;2023-07-29T05:59:58;6.60;;;5.22;;
9072;SDS011;4572;41.642;25.370;2023-07-29T06:02:23;7.60;;;5.32;;
9072;SDS011;4572;41.642;25.370;2023-07-29T06:04:49;6.07;;;5.55;;
9072;SDS011;4572;41.642;25.370;2023-07-29T06:07:14;6.45;;;5.70;;
9072;SDS011;4572;41.642;25.370;2023-07-29T06:09:40;6.55;;;5.22;;
9072;SDS011;4572;41.642;25.370;2023-07-29T06:12:05;6.78;;;5.65;;
9072;SDS011;4572;41.642;25.370;2023-07-29T06:14:31;5.40;;;4.60;;
9072;SDS011;4572;41.642;25.370;2023-07-29T06:16:57;6.90;;;5.30;;
9072;SDS011;4572;41.642;25.370;2023-07-29T06:19:22;5.72;;;5.10;;
9072;SDS011;4572;41.642;25.370;2023-07-29T06:21:48;7.18;;;5.30;;
9072;SDS011;4572;41.642;25.370;2023-07-29T06:24:13;8.15;;;5.72;;
9072;SDS011;4572;41.642;25.370;2023-07-29T06:26:39;5.78;;;5.28;;
9072;SDS011;4572;41.642;25.370;2023-07-29T06:29:04;12.13;;;5.15;;
9072;SDS011;4572;41.642;25.370;2023-07-29T06:31:30;7.82;;;5.90;;
9072;SDS011;4572;41.642;25.370;2023-07-29T06:33:58;8.93;;;5.97;;
9072;SDS011;4572;41.642;25.370;2023-07-29T06:36:23;6.35;;;5.13;;
9072;SDS011;4572;41.642;25.370;2023-07-29T06:38:49;6.38;;;5.28;;
9072;SDS011;4572;41.642;25.370;2023-07-29T06:41:14;10.20;;;7.32;;
9072;SDS011;4572;41.642;25.370;2023-07-29T06:43:40;5.20;;;4.57;;
9072;SDS011;4572;41.642;25.370;2023-07-29T06:46:05;6.57;;;5.80;;
9072;SDS011;4572;41.642;25.370;2023-07-29T06:48:31;6.15;;;5.47;;
9072;SDS011;4572;41.642;25.370;2023-07-29T06:50:56;8.07;;;5.40;;
9072;SDS011;4572;41.642;25.370;2023-07-29T06:53:26;6.07;;;5.30;;
9072;SDS011;4572;41.642;25.370;2023-07-29T06:55:52;5.70;;;5.10;;
9072;SDS011;4572;41.642;25.370;2023-07-29T06:58:17;6.30;;;5.50;;
9072;SDS011;4572;41.642;25.370;2023-07-29T07:00:43;5.40;;;4.72;;
9072;SDS011;4572;41.642;25.370;2023-07-29T07:03:08;8.52;;;5.88;;
9072;SDS011;4572;41.642;25.370;2023-07-29T07:05:34;7.47;;;5.32;;
9072;SDS011;4572;41.642;25.370;2023-07-29T07:07:59;8.88;;;5.85;;
9072;SDS011;4572;41.642;25.370;2023-07-29T07:10:25;6.18;;;5.57;;
9072;SDS011;4572;41.642;25.370;2023-07-29T07:12:50;8.70;;;5.75;;
9072;SDS011;4572;41.642;25.370;2023-07-29T07:15:16;5.60;;;4.65;;
9072;SDS011;4572;41.642;25.370;2023-07-29T07:17:41;6.93;;;5.55;;
9072;SDS011;4572;41.642;25.370;2023-07-29T07:20:07;9.95;;;4.40;;
9072;SDS011;4572;41.642;25.370;2023-07-29T07:22:32;6.63;;;5.40;;
9072;SDS011;4572;41.642;25.370;2023-07-29T07:24:58;6.03;;;5.00;;
9072;SDS011;4572;41.642;25.370;2023-07-29T07:27:24;5.55;;;5.05;;
9072;SDS011;4572;41.642;25.370;2023-07-29T07:29:49;5.63;;;4.97;;
9072;SDS011;4572;41.642;25.370;2023-07-29T07:32:15;5.28;;;4.53;;
9072;SDS011;4572;41.642;25.370;2023-07-29T07:34:40;6.50;;;5.00;;
9072;SDS011;4572;41.642;25.370;2023-07-29T07:37:06;6.20;;;5.13;;
9072;SDS011;4572;41.642;25.370;2023-07-29T07:39:32;5.93;;;4.90;;
9072;SDS011;4572;41.642;25.370;2023-07-29T07:41:57;7.45;;;5.10;;
9072;SDS011;4572;41.642;25.370;2023-07-29T07:44:23;7.10;;;5.68;;
9072;SDS011;4572;41.642;25.370;2023-07-29T07:46:51;5.15;;;4.60;;
9072;SDS011;4572;41.642;25.370;2023-07-29T07:49:17;4.38;;;3.97;;
9072;SDS011;4572;41.642;25.370;2023-07-29T07:51:43;5.13;;;4.38;;
9072;SDS011;4572;41.642;25.370;2023-07-29T07:54:09;4.53;;;4.10;;
9072;SDS011;4572;41.642;25.370;2023-07-29T07:56:34;4.78;;;4.20;;
9072;SDS011;4572;41.642;25.370;2023-07-29T07:59:00;5.00;;;4.50;;
9072;SDS011;4572;41.642;25.370;2023-07-29T08:01:25;4.68;;;4.28;;
9072;SDS011;4572;41.642;25.370;2023-07-29T08:03:51;4.75;;;4.32;;
9072;SDS011;4572;41.642;25.370;2023-07-29T08:06:16;5.03;;;4.10;;
9072;SDS011;4572;41.642;25.370;2023-07-29T08:08:42;4.55;;;4.15;;
9072;SDS011;4572;41.642;25.370;2023-07-29T08:11:08;4.63;;;4.22;;
9072;SDS011;4572;41.642;25.370;2023-07-29T08:13:33;6.15;;;4.43;;
9072;SDS011;4572;41.642;25.370;2023-07-29T08:15:59;6.03;;;3.67;;
9072;SDS011;4572;41.642;25.370;2023-07-29T08:18:24;4.25;;;3.85;;
9072;SDS011;4572;41.642;25.370;2023-07-29T08:20:54;4.30;;;3.85;;
9072;SDS011;4572;41.642;25.370;2023-07-29T08:23:23;5.35;;;4.85;;
9072;SDS011;4572;41.642;25.370;2023-07-29T08:25:53;4.57;;;4.13;;
9072;SDS011;4572;41.642;25.370;2023-07-29T08:28:21;4.93;;;4.22;;
9072;SDS011;4572;41.642;25.370;2023-07-29T08:30:47;4.57;;;4.18;;
9072;SDS011;4572;41.642;25.370;2023-07-29T08:33:13;4.65;;;4.18;;
9072;SDS011;4572;41.642;25.370;2023-07-29T08:35:38;7.07;;;4.47;;
9072;SDS011;4572;41.642;25.370;2023-07-29T08:38:03;10.73;;;4.40;;
9072;SDS011;4572;41.642;25.370;2023-07-29T08:40:29;4.57;;;4.18;;
9072;SDS011;4572;41.642;25.370;2023-07-29T08:42:57;4.38;;;3.97;;
9072;SDS011;4572;41.642;25.370;2023-07-29T08:45:23;5.18;;;4.32;;
9072;SDS011;4572;41.642;25.370;2023-07-29T08:47:50;5.45;;;3.65;;
9072;SDS011;4572;41.642;25.370;2023-07-29T08:50:19;5.80;;;3.53;;
9072;SDS011;4572;41.642;25.370;2023-07-29T08:52:45;8.43;;;5.03;;
9072;SDS011;4572;41.642;25.370;2023-07-29T08:55:11;5.43;;;4.55;;
9072;SDS011;4572;41.642;25.370;2023-07-29T08:57:37;5.72;;;5.18;;
9072;SDS011;4572;41.642;25.370;2023-07-29T09:00:02;5.85;;;5.07;;
9072;SDS011;4572;41.642;25.370;2023-07-29T09:02:29;8.00;;;5.35;;
9072;SDS011;4572;41.642;25.370;2023-07-29T09:04:54;4.53;;;3.72;;
9072;SDS011;4572;41.642;25.370;2023-07-29T09:07:19;5.20;;;3.65;;
9072;SDS011;4572;41.642;25.370;2023-07-29T09:09:45;4.07;;;3.67;;
9072;SDS011;4572;41.642;25.370;2023-07-29T09:12:11;5.13;;;4.40;;
9072;SDS011;4572;41.642;25.370;2023-07-29T09:14:37;4.38;;;3.92;;
9072;SDS011;4572;41.642;25.370;2023-07-29T09:17:02;4.78;;;4.07;;
9072;SDS011;4572;41.642;25.370;2023-07-29T09:19:32;3.95;;;3.33;;
9072;SDS011;4572;41.642;25.370;2023-07-29T09:21:58;5.78;;;3.67;;
9072;SDS011;4572;41.642;25.370;2023-07-29T09:24:24;4.82;;;3.55;;
9072;SDS011;4572;41.642;25.370;2023-07-29T09:26:49;3.63;;;3.33;;
9072;SDS011;4572;41.642;25.370;2023-07-29T09:29:16;3.90;;;3.08;;
9072;SDS011;4572;41.642;25.370;2023-07-29T09:31:47;5.15;;;3.35;;
9072;SDS011;4572;41.642;25.370;2023-07-29T09:34:12;5.78;;;3.80;;
9072;SDS011;4572;41.642;25.370;2023-07-29T09:36:40;3.80;;;3.38;;
9072;SDS011;4572;41.642;25.370;2023-07-29T09:39:10;5.75;;;3.40;;
9072;SDS011;4572;41.642;25.370;2023-07-29T09:41:36;4.25;;;3.85;;
9072;SDS011;4572;41.642;25.370;2023-07-29T09:44:03;4.32;;;3.35;;
9072;SDS011;4572;41.642;25.370;2023-07-29T09:46:36;3.53;;;3.22;;
9072;SDS011;4572;41.642;25.370;2023-07-29T09:49:03;3.40;;;3.10;;
9072;SDS011;4572;41.642;25.370;2023-07-29T09:51:29;3.25;;;2.95;;
9072;SDS011;4572;41.642;25.370;2023-07-29T09:53:54;3.90;;;3.40;;
9072;SDS011;4572;41.642;25.370;2023-07-29T09:56:23;4.63;;;3.90;;
9072;SDS011;4572;41.642;25.370;2023-07-29T09:58:51;4.82;;;3.40;;
9072;SDS011;4572;41.642;25.370;2023-07-29T10:01:16;2.95;;;2.75;;
9072;SDS011;4572;41.642;25.370;2023-07-29T10:03:43;2.95;;;2.75;;
9072;SDS011;4572;41.642;25.370;2023-07-29T10:06:09;3.83;;;3.42;;
9072;SDS011;4572;41.642;25.370;2023-07-29T10:08:35;4.18;;;3.55;;
9072;SDS011;4572;41.642;25.370;2023-07-29T10:11:07;3.95;;;3.60;;
9072;SDS011;4572;41.642;25.370;2023-07-29T10:13:33;3.72;;;2.85;;
9072;SDS011;4572;41.642;25.370;2023-07-29T10:15:59;3.15;;;2.85;;
9072;SDS011;4572;41.642;25.370;2023-07-29T10:18:28;3.35;;;3.05;;
9072;SDS011;4572;41.642;25.370;2023-07-29T10:20:54;4.40;;;2.30;;
9072;SDS011;4572;41.642;25.370;2023-07-29T10:23:22;3.60;;;3.10;;
9072;SDS011;4572;41.642;25.370;2023-07-29T10:25:53;3.42;;;2.90;;
9072;SDS011;4572;41.642;25.370;2023-07-29T10:28:21;5.95;;;3.13;;
9072;SDS011;4572;41.642;25.370;2023-07-29T10:30:49;3.20;;;2.90;;
9072;SDS011;4572;41.642;25.370;2023-07-29T10:33:15;3.83;;;2.67;;
9072;SDS011;4572;41.642;25.370;2023-07-29T10:35:41;3.28;;;2.70;;
9072;SDS011;4572;41.642;25.370;2023-07-29T10:38:07;8.80;;;7.78;;
9072;SDS011;4572;41.642;25.370;2023-07-29T10:43:11;3.03;;;2.70;;
9072;SDS011;4572;41.642;25.370;2023-07-29T10:45:38;3.42;;;3.13;;
9072;SDS011;4572;41.642;25.370;2023-07-29T10:48:11;3.17;;;2.88;;
9072;SDS011;4572;41.642;25.370;2023-07-29T10:50:37;2.80;;;2.60;;
9072;SDS011;4572;41.642;25.370;2023-07-29T10:53:03;4.68;;;2.75;;
9072;SDS011;4572;41.642;25.370;2023-07-29T10:55:32;5.13;;;3.10;;
9072;SDS011;4572;41.642;25.370;2023-07-29T11:00:31;3.33;;;3.03;;
9072;SDS011;4572;41.642;25.370;2023-07-29T11:03:15;4.05;;;2.90;;
9072;SDS011;4572;41.642;25.370;2023-07-29T11:05:42;5.43;;;2.83;;
9072;SDS011;4572;41.642;25.370;2023-07-29T11:08:18;4.95;;;2.67;;
9072;SDS011;4572;41.642;25.370;2023-07-29T11:10:57;2.65;;;2.45;;
9072;SDS011;4572;41.642;25.370;2023-07-29T11:13:27;4.85;;;3.08;;
9072;SDS011;4572;41.642;25.370;2023-07-29T11:15:56;3.85;;;3.47;;
9072;SDS011;4572;41.642;25.370;2023-07-29T11:18:25;6.05;;;3.03;;
9072;SDS011;4572;41.642;25.370;2023-07-29T11:20:56;2.83;;;2.50;;
9072;SDS011;4572;41.642;25.370;2023-07-29T11:23:32;3.00;;;2.33;;
9072;SDS011;4572;41.642;25.370;2023-07-29T11:25:58;2.40;;;2.25;;
9072;SDS011;4572;41.642;25.370;2023-07-29T11:28:26;3.40;;;2.58;;
9072;SDS011;4572;41.642;25.370;2023-07-29T11:30:53;2.83;;;2.45;;
9072;SDS011;4572;41.642;25.370;2023-07-29T11:33:20;4.65;;;2.70;;
9072;SDS011;4572;41.642;25.370;2023-07-29T11:35:46;2.20;;;2.00;;
9072;SDS011;4572;41.642;25.370;2023-07-29T11:38:15;2.53;;;2.22;;
9072;SDS011;4572;41.642;25.370;2023-07-29T11:40:42;4.78;;;4.25;;
9072;SDS011;4572;41.642;25.370;2023-07-29T11:43:07;3.38;;;3.08;;
9072;SDS011;4572;41.642;25.370;2023-07-29T11:45:33;2.78;;;2.55;;
9072;SDS011;4572;41.642;25.370;2023-07-29T11:48:00;3.60;;;2.20;;
9072;SDS011;4572;41.642;25.370;2023-07-29T11:50:26;2.33;;;2.03;;
9072;SDS011;4572;41.642;25.370;2023-07-29T11:52:52;2.33;;;2.10;;
9072;SDS011;4572;41.642;25.370;2023-07-29T11:55:17;2.50;;;1.98;;
9072;SDS011;4572;41.642;25.370;2023-07-29T11:57:44;1.90;;;1.80;;
9072;SDS011;4572;41.642;25.370;2023-07-29T12:00:10;2.42;;;2.22;;
9072;SDS011;4572;41.642;25.370;2023-07-29T12:02:37;2.45;;;2.22;;
9072;SDS011;4572;41.642;25.370;2023-07-29T12:05:04;2.53;;;2.08;;
9072;SDS011;4572;41.642;25.370;2023-07-29T12:07:31;2.22;;;2.03;;
9072;SDS011;4572;41.642;25.370;2023-07-29T12:09:58;4.30;;;2.20;;
9072;SDS011;4572;41.642;25.370;2023-07-29T12:12:24;2.10;;;2.00;;
9072;SDS011;4572;41.642;25.370;2023-07-29T12:14:49;2.22;;;1.92;;
9072;SDS011;4572;41.642;25.370;2023-07-29T12:17:15;6.45;;;3.65;;
9072;SDS011;4572;41.642;25.370;2023-07-29T12:19:41;2.75;;;2.55;;
9072;SDS011;4572;41.642;25.370;2023-07-29T12:22:08;2.72;;;2.53;;
9072;SDS011;4572;41.642;25.370;2023-07-29T12:24:36;2.67;;;2.40;;
9072;SDS011;4572;41.642;25.370;2023-07-29T12:27:03;2.40;;;2.20;;
9072;SDS011;4572;41.642;25.370;2023-07-29T12:29:29;3.47;;;2.47;;
9072;SDS011;4572;41.642;25.370;2023-07-29T12:32:01;2.50;;;2.25;;
9072;SDS011;4572;41.642;25.370;2023-07-29T12:34:28;3.38;;;3.08;;
9072;SDS011;4572;41.642;25.370;2023-07-29T12:36:55;5.00;;;2.33;;
9072;SDS011;4572;41.642;25.370;2023-07-29T12:39:22;2.45;;;2.25;;
9072;SDS011;4572;41.642;25.370;2023-07-29T12:41:52;2.35;;;2.15;;
9072;SDS011;4572;41.642;25.370;2023-07-29T12:44:19;8.27;;;4.35;;
9072;SDS011;4572;41.642;25.370;2023-07-29T12:46:44;3.75;;;2.35;;
9072;SDS011;4572;41.642;25.370;2023-07-29T12:49:10;2.53;;;2.33;;
9072;SDS011;4572;41.642;25.370;2023-07-29T12:51:36;2.83;;;2.38;;
9072;SDS011;4572;41.642;25.370;2023-07-29T12:54:02;3.10;;;2.40;;
9072;SDS011;4572;41.642;25.370;2023-07-29T12:56:29;2.42;;;2.10;;
9072;SDS011;4572;41.642;25.370;2023-07-29T12:58:56;2.40;;;2.20;;
9072;SDS011;4572;41.642;25.370;2023-07-29T13:01:21;2.80;;;2.38;;
9072;SDS011;4572;41.642;25.370;2023-07-29T13:03:47;5.30;;;2.40;;
9072;SDS011;4572;41.642;25.370;2023-07-29T13:06:13;4.93;;;3.05;;
9072;SDS011;4572;41.642;25.370;2023-07-29T13:08:40;2.75;;;2.15;;
9072;SDS011;4572;41.642;25.370;2023-07-29T13:11:06;2.20;;;2.00;;
9072;SDS011;4572;41.642;25.370;2023-07-29T13:13:31;2.30;;;2.10;;
9072;SDS011;4572;41.642;25.370;2023-07-29T13:15:57;2.10;;;1.90;;
9072;SDS011;4572;41.642;25.370;2023-07-29T13:18:23;2.65;;;2.40;;
9072;SDS011;4572;41.642;25.370;2023-07-29T13:20:48;2.15;;;1.95;;
9072;SDS011;4572;41.642;25.370;2023-07-29T13:23:14;2.33;;;2.13;;
9072;SDS011;4572;41.642;25.370;2023-07-29T13:25:40;2.80;;;2.40;;
9072;SDS011;4572;41.642;25.370;2023-07-29T13:28:06;2.40;;;2.15;;
9072;SDS011;4572;41.642;25.370;2023-07-29T13:30:32;2.78;;;2.50;;
9072;SDS011;4572;41.642;25.370;2023-07-29T13:32:58;2.20;;;2.00;;
9072;SDS011;4572;41.642;25.370;2023-07-29T13:35:23;4.05;;;1.92;;
9072;SDS011;4572;41.642;25.370;2023-07-29T13:37:49;3.30;;;2.50;;
9072;SDS011;4572;41.642;25.370;2023-07-29T13:40:14;4.05;;;2.30;;
9072;SDS011;4572;41.642;25.370;2023-07-29T13:42:40;2.95;;;2.40;;
9072;SDS011;4572;41.642;25.370;2023-07-29T13:45:06;3.03;;;2.17;;
9072;SDS011;4572;41.642;25.370;2023-07-29T13:47:31;3.10;;;2.58;;
9072;SDS011;4572;41.642;25.370;2023-07-29T13:49:57;4.20;;;2.35;;
9072;SDS011;4572;41.642;25.370;2023-07-29T13:52:22;2.35;;;1.77;;
9072;SDS011;4572;41.642;25.370;2023-07-29T13:54:48;2.53;;;2.33;;
9072;SDS011;4572;41.642;25.370;2023-07-29T13:57:14;2.65;;;2.45;;
9072;SDS011;4572;41.642;25.370;2023-07-29T13:59:39;2.83;;;2.55;;
9072;SDS011;4572;41.642;25.370;2023-07-29T14:02:05;2.97;;;2.45;;
9072;SDS011;4572;41.642;25.370;2023-07-29T14:04:31;2.50;;;2.30;;
9072;SDS011;4572;41.642;25.370;2023-07-29T14:06:57;2.42;;;1.95;;
9072;SDS011;4572;41.642;25.370;2023-07-29T14:09:23;2.15;;;1.95;;
9072;SDS011;4572;41.642;25.370;2023-07-29T14:11:49;2.70;;;2.25;;
9072;SDS011;4572;41.642;25.370;2023-07-29T14:14:15;2.80;;;2.50;;
9072;SDS011;4572;41.642;25.370;2023-07-29T14:16:40;3.03;;;2.13;;
9072;SDS011;4572;41.642;25.370;2023-07-29T14:19:06;2.42;;;2.08;;
9072;SDS011;4572;41.642;25.370;2023-07-29T14:21:31;3.38;;;2.42;;
9072;SDS011;4572;41.642;25.370;2023-07-29T14:23:57;2.72;;;2.17;;
9072;SDS011;4572;41.642;25.370;2023-07-29T14:26:22;2.72;;;2.42;;
9072;SDS011;4572;41.642;25.370;2023-07-29T14:28:47;2.35;;;1.92;;
9072;SDS011;4572;41.642;25.370;2023-07-29T14:31:15;2.63;;;2.13;;
9072;SDS011;4572;41.642;25.370;2023-07-29T14:33:42;2.42;;;2.22;;
9072;SDS011;4572;41.642;25.370;2023-07-29T14:36:08;2.58;;;2.33;;
9072;SDS011;4572;41.642;25.370;2023-07-29T14:38:34;3.33;;;2.58;;
9072;SDS011;4572;41.642;25.370;2023-07-29T14:41:00;2.53;;;1.90;;
9072;SDS011;4572;41.642;25.370;2023-07-29T14:43:25;2.90;;;2.45;;
9072;SDS011;4572;41.642;25.370;2023-07-29T14:45:51;2.38;;;2.03;;
9072;SDS011;4572;41.642;25.370;2023-07-29T14:48:16;3.80;;;2.88;;
9072;SDS011;4572;41.642;25.370;2023-07-29T14:50:42;4.65;;;2.90;;
9072;SDS011;4572;41.642;25.370;2023-07-29T14:53:09;2.75;;;2.22;;
9072;SDS011;4572;41.642;25.370;2023-07-29T14:55:35;3.88;;;2.65;;
9072;SDS011;4572;41.642;25.370;2023-07-29T14:58:01;3.42;;;2.53;;
9072;SDS011;4572;41.642;25.370;2023-07-29T15:00:27;3.47;;;2.53;;
9072;SDS011;4572;41.642;25.370;2023-07-29T15:02:54;3.88;;;2.65;;
9072;SDS011;4572;41.642;25.370;2023-07-29T15:05:19;3.67;;;2.53;;